createdAt,value
2023-11-23T00:00:55.610Z,0.56
2023-11-23T00:04:08.440Z,0.52
2023-11-23T00:07:20.889Z,0.38
2023-11-23T00:10:33.561Z,0.45
2023-11-23T00:13:45.962Z,0.55
2023-11-23T00:16:58.636Z,0.67
2023-11-23T00:20:11.599Z,0.40
2023-11-23T00:23:24.288Z,-0.08
2023-11-23T00:26:36.696Z,0.01
2023-11-23T00:29:49.680Z,-0.34
2023-11-23T00:33:02.245Z,-0.39
2023-11-23T00:36:15.100Z,-0.39
2023-11-23T00:39:27.710Z,-0.37
2023-11-23T00:42:40.497Z,-0.36
2023-11-23T00:45:52.976Z,-0.37
2023-11-23T00:49:06.436Z,-0.48
2023-11-23T00:52:18.937Z,-0.36
2023-11-23T00:55:31.674Z,-0.30
2023-11-23T00:58:44.132Z,-0.36
2023-11-23T01:01:57.903Z,-0.36
2023-11-23T01:05:12.901Z,-0.30
2023-11-23T01:08:25.577Z,-0.26
2023-11-23T01:11:39.130Z,-0.36
2023-11-23T01:14:51.927Z,-0.57
2023-11-23T01:18:05.319Z,-0.52
2023-11-23T01:21:18.053Z,-0.70
2023-11-23T01:24:30.457Z,-0.64
2023-11-23T01:27:43.174Z,-0.87
2023-11-23T01:30:55.604Z,-0.79
2023-11-23T01:34:08.376Z,-0.68
2023-11-23T01:37:20.855Z,-0.88
2023-11-23T01:40:36.013Z,-0.92
2023-11-23T01:43:48.444Z,-0.79
2023-11-23T01:47:01.200Z,-0.87
2023-11-23T01:50:14.841Z,-0.77
2023-11-23T01:53:27.561Z,-0.71
2023-11-23T01:56:40.293Z,-0.62
2023-11-23T01:59:53.566Z,-0.43
2023-11-23T02:03:06.137Z,-0.43
2023-11-23T02:06:21.013Z,-0.51
2023-11-23T02:09:33.467Z,-0.60
2023-11-23T02:12:49.997Z,-0.59
2023-11-23T02:16:02.777Z,-0.59
2023-11-23T02:19:15.255Z,-0.61
2023-11-23T02:22:28.147Z,-0.81
2023-11-23T02:25:40.756Z,-0.56
2023-11-23T02:28:53.418Z,-0.66
2023-11-23T02:32:10.056Z,-0.60
2023-11-23T02:35:23.006Z,-0.66
2023-11-23T02:38:35.332Z,-0.48
2023-11-23T02:41:48.392Z,-0.71
2023-11-23T02:45:00.876Z,-0.74
2023-11-23T02:48:13.805Z,-0.81
2023-11-23T02:51:26.539Z,-0.90
2023-11-23T02:54:39.771Z,-0.80
2023-11-23T02:57:52.175Z,-0.69
2023-11-23T03:01:06.533Z,-0.49
2023-11-23T03:04:19.115Z,-0.82
2023-11-23T03:07:31.820Z,-0.89
2023-11-23T03:10:44.272Z,-0.85
2023-11-23T03:13:58.940Z,-0.75
2023-11-23T03:17:11.362Z,-0.94
2023-11-23T03:20:24.045Z,-0.93
2023-11-23T03:23:36.619Z,-0.92
2023-11-23T03:26:49.572Z,-0.92
2023-11-23T03:30:02.104Z,-0.83
2023-11-23T03:33:16.243Z,-0.77
2023-11-23T03:36:28.673Z,-0.82
2023-11-23T03:39:43.238Z,-0.96
2023-11-23T03:42:55.629Z,-0.85
2023-11-23T03:46:09.120Z,-0.71
2023-11-23T03:49:21.542Z,-1.04
2023-11-23T03:52:34.235Z,-0.78
2023-11-23T03:55:47.024Z,-0.79
2023-11-23T03:58:59.810Z,-0.92
2023-11-23T04:02:12.295Z,-1.13
2023-11-23T04:05:25.135Z,-1.02
2023-11-23T04:08:37.494Z,-0.95
2023-11-23T04:11:50.153Z,-0.94
2023-11-23T04:15:02.708Z,-0.88
2023-11-23T04:18:15.793Z,-0.75
2023-11-23T04:21:28.296Z,-0.72
2023-11-23T04:24:42.087Z,-0.82
2023-11-23T04:27:55.466Z,-0.99
2023-11-23T04:31:08.131Z,-0.88
2023-11-23T04:34:20.619Z,-1.11
2023-11-23T04:37:33.580Z,-1.13
2023-11-23T04:40:45.949Z,-1.29
2023-11-23T04:43:58.601Z,-1.21
2023-11-23T04:47:11.423Z,-1.12
2023-11-23T04:50:24.118Z,-1.26
2023-11-23T04:53:36.554Z,-1.24
2023-11-23T04:56:51.608Z,-1.23
2023-11-23T05:00:05.595Z,-1.27
2023-11-23T05:03:18.316Z,-1.32
2023-11-23T05:06:30.765Z,-1.24
2023-11-23T05:09:43.610Z,-1.26
2023-11-23T05:12:55.991Z,-1.16
2023-11-23T05:16:09.096Z,-1.26
2023-11-23T05:19:31.839Z,-1.20
2023-11-23T05:22:52.596Z,-1.13
2023-11-23T05:26:05.836Z,-1.22
2023-11-23T05:29:18.598Z,-1.02
2023-11-23T05:32:30.986Z,-1.25
2023-11-23T05:35:43.696Z,-1.43
2023-11-23T05:38:56.146Z,-1.36
2023-11-23T05:42:09.425Z,-1.31
2023-11-23T05:45:21.841Z,-1.28
2023-11-23T05:48:34.688Z,-1.23
2023-11-23T05:51:47.115Z,-1.14
2023-11-23T05:54:59.859Z,-1.07
2023-11-23T05:58:12.262Z,-0.93
2023-11-23T06:01:27.026Z,-0.83
2023-11-23T06:04:42.177Z,-0.89
2023-11-23T06:07:54.678Z,-1.04
2023-11-23T06:11:07.424Z,-1.09
2023-11-23T06:14:19.950Z,-1.15
2023-11-23T06:17:32.759Z,-1.09
2023-11-23T06:20:45.307Z,-1.14
2023-11-23T06:23:59.467Z,-1.06
2023-11-23T06:27:12.065Z,-1.13
2023-11-23T06:30:24.931Z,-0.89
2023-11-23T06:33:37.356Z,-0.89
2023-11-23T06:36:52.863Z,-0.80
2023-11-23T06:40:05.898Z,-0.72
2023-11-23T06:43:18.760Z,-0.57
2023-11-23T06:46:31.182Z,-0.45
2023-11-23T06:49:44.145Z,-0.35
2023-11-23T06:52:58.045Z,-0.37
2023-11-23T06:56:14.814Z,-0.19
2023-11-23T06:59:27.291Z,-0.16
2023-11-23T07:02:40.072Z,0.11
2023-11-23T07:05:52.901Z,0.21
2023-11-23T07:09:05.875Z,-0.03
2023-11-23T07:12:19.055Z,-0.04
2023-11-23T07:15:31.918Z,0.48
2023-11-23T07:18:44.639Z,0.50
2023-11-23T07:21:57.459Z,0.64
2023-11-23T07:25:10.815Z,0.53
2023-11-23T07:28:26.160Z,0.66
2023-11-23T07:31:40.021Z,0.93
2023-11-23T07:34:53.978Z,0.88
2023-11-23T07:38:06.996Z,0.81
2023-11-23T07:41:19.814Z,0.96
2023-11-23T07:44:32.509Z,0.90
2023-11-23T07:47:45.448Z,0.97
2023-11-23T07:50:58.133Z,0.77
2023-11-23T07:54:11.085Z,0.78
2023-11-23T07:57:23.642Z,1.18
2023-11-23T08:00:39.694Z,0.88
2023-11-23T08:03:52.920Z,0.94
2023-11-23T08:07:06.819Z,0.81
2023-11-23T08:10:20.804Z,1.03
2023-11-23T08:13:33.304Z,1.08
2023-11-23T08:16:45.987Z,1.19
2023-11-23T08:19:58.471Z,1.07
2023-11-23T08:23:13.812Z,1.13
2023-11-23T08:26:27.190Z,0.84
2023-11-23T08:29:40.328Z,1.18
2023-11-23T08:32:52.954Z,1.15
2023-11-23T08:36:06.337Z,0.90
2023-11-23T08:39:20.531Z,1.04
2023-11-23T08:42:34.736Z,1.10
2023-11-23T08:45:47.560Z,1.39
2023-11-23T08:49:01.273Z,1.65
2023-11-23T08:52:14.783Z,1.44
2023-11-23T08:55:27.520Z,1.45
2023-11-23T08:58:40.978Z,1.71
2023-11-23T09:01:59.103Z,1.57
2023-11-23T09:05:18.163Z,1.50
2023-11-23T09:08:30.901Z,1.62
2023-11-23T09:11:43.325Z,1.86
2023-11-23T09:14:58.333Z,1.72
2023-11-23T09:18:12.096Z,2.12
2023-11-23T09:21:25.368Z,2.09
2023-11-23T09:24:39.132Z,2.32
2023-11-23T09:27:52.904Z,2.32
2023-11-23T09:31:05.417Z,2.23
2023-11-23T09:34:19.009Z,2.20
2023-11-23T09:37:31.545Z,2.38
2023-11-23T09:40:44.291Z,2.29
2023-11-23T09:43:56.734Z,2.62
2023-11-23T09:47:10.495Z,2.57
2023-11-23T09:50:23.179Z,2.76
2023-11-23T09:53:36.092Z,2.75
2023-11-23T09:56:48.702Z,2.75
2023-11-23T10:00:01.483Z,3.16
2023-11-23T10:03:15.651Z,3.27
2023-11-23T10:06:28.667Z,3.25
2023-11-23T10:09:42.094Z,3.26
2023-11-23T10:12:57.917Z,3.07
2023-11-23T10:16:13.547Z,3.27
2023-11-23T10:19:26.436Z,3.09
2023-11-23T10:22:50.907Z,3.18
2023-11-23T10:26:03.886Z,3.08
2023-11-23T10:29:16.387Z,3.30
2023-11-23T10:32:32.206Z,3.22
2023-11-23T10:35:53.939Z,3.12
2023-11-23T10:39:07.421Z,3.15
2023-11-23T10:42:20.657Z,3.37
2023-11-23T10:45:36.788Z,3.19
2023-11-23T10:48:50.058Z,3.46
2023-11-23T10:52:04.611Z,3.15
2023-11-23T10:55:17.201Z,3.26
2023-11-23T10:58:30.686Z,3.49
2023-11-23T11:01:43.312Z,3.46
2023-11-23T11:04:59.482Z,3.50
2023-11-23T11:08:12.069Z,3.83
2023-11-23T11:11:25.938Z,3.75
2023-11-23T11:14:39.384Z,3.94
2023-11-23T11:17:52.957Z,4.05
2023-11-23T11:21:08.976Z,3.91
2023-11-23T11:24:23.156Z,4.17
2023-11-23T11:27:35.991Z,3.97
2023-11-23T11:30:48.833Z,4.11
2023-11-23T11:34:02.164Z,4.32
2023-11-23T11:37:14.914Z,4.50
2023-11-23T11:40:28.766Z,4.52
2023-11-23T11:43:41.489Z,4.65
2023-11-23T11:46:54.011Z,4.70
2023-11-23T11:50:07.134Z,4.96
2023-11-23T11:53:20.114Z,4.95
2023-11-23T11:56:32.877Z,5.02
2023-11-23T11:59:45.390Z,4.85
2023-11-23T12:02:58.772Z,4.92
2023-11-23T12:06:11.824Z,5.34
2023-11-23T12:09:34.351Z,5.47
2023-11-23T12:12:52.080Z,5.58
2023-11-23T12:16:04.682Z,5.50
2023-11-23T12:19:20.916Z,5.64
2023-11-23T12:22:33.770Z,5.31
2023-11-23T12:25:46.994Z,5.61
2023-11-23T12:29:02.767Z,5.37
2023-11-23T12:32:16.270Z,5.67
2023-11-23T12:35:29.872Z,5.65
2023-11-23T12:38:43.197Z,5.68
2023-11-23T12:41:55.807Z,5.80
2023-11-23T12:45:10.063Z,5.65
2023-11-23T12:48:22.658Z,5.57
2023-11-23T12:51:36.471Z,5.57
2023-11-23T12:56:15.780Z,5.92
2023-11-23T12:59:28.637Z,5.85
2023-11-23T13:02:41.633Z,5.92
2023-11-23T13:05:55.712Z,6.12
2023-11-23T13:09:16.885Z,5.69
2023-11-23T13:12:30.104Z,5.71
2023-11-23T13:15:42.628Z,6.21
2023-11-23T13:19:11.001Z,6.16
2023-11-23T13:22:27.906Z,6.23
2023-11-23T13:25:40.602Z,6.33
2023-11-23T13:28:58.453Z,6.16
2023-11-23T13:32:11.804Z,6.57
2023-11-23T13:35:28.849Z,6.47
2023-11-23T13:38:41.418Z,6.25
2023-11-23T13:41:53.736Z,6.47
2023-11-23T13:45:09.214Z,6.60
2023-11-23T13:48:21.707Z,7.08
2023-11-23T13:51:35.305Z,6.79
2023-11-23T13:54:49.113Z,6.52
2023-11-23T13:58:02.089Z,6.56
2023-11-23T14:01:16.776Z,6.80
2023-11-23T14:04:30.059Z,6.44
2023-11-23T14:07:42.483Z,6.48
2023-11-23T14:10:55.121Z,6.30
2023-11-23T14:14:09.504Z,6.00
2023-11-23T14:17:23.607Z,5.73
2023-11-23T14:20:36.925Z,5.79
2023-11-23T14:23:51.120Z,5.69
2023-11-23T14:27:03.959Z,5.73
2023-11-23T14:30:20.103Z,5.70
2023-11-23T14:33:32.617Z,5.62
2023-11-23T14:36:45.742Z,5.79
2023-11-23T14:39:58.721Z,5.72
2023-11-23T14:43:13.037Z,5.52
2023-11-23T14:46:25.475Z,5.41
2023-11-23T14:49:39.402Z,5.37
2023-11-23T14:52:52.199Z,5.87
2023-11-23T14:56:05.241Z,5.68
2023-11-23T14:59:18.038Z,5.31
2023-11-23T15:02:32.475Z,5.23
2023-11-23T15:05:46.992Z,4.81
2023-11-23T15:08:59.746Z,4.73
2023-11-23T15:12:15.357Z,4.58
2023-11-23T15:15:31.566Z,4.55
2023-11-23T15:18:46.165Z,4.55
2023-11-23T15:22:03.526Z,4.52
2023-11-23T15:25:15.977Z,4.49
2023-11-23T15:28:28.700Z,4.39
2023-11-23T15:31:41.331Z,4.37
2023-11-23T15:34:54.380Z,4.33
2023-11-23T15:38:06.732Z,4.38
2023-11-23T15:41:19.496Z,4.19
2023-11-23T15:44:32.663Z,4.12
2023-11-23T15:47:45.428Z,4.08
2023-11-23T15:50:58.439Z,4.13
2023-11-23T15:54:11.547Z,4.14
2023-11-23T15:57:24.063Z,4.15
2023-11-23T16:00:37.210Z,4.11
2023-11-23T16:03:50.946Z,4.09
2023-11-23T16:07:04.022Z,4.16
2023-11-23T16:10:16.756Z,4.11
2023-11-23T16:13:29.160Z,4.08
2023-11-23T16:16:42.762Z,4.09
2023-11-23T16:19:55.848Z,4.02
2023-11-23T16:23:10.039Z,3.83
2023-11-23T16:26:22.447Z,3.73
2023-11-23T16:29:35.138Z,3.76
2023-11-23T16:32:47.578Z,3.57
2023-11-23T16:36:00.441Z,3.65
2023-11-23T16:39:18.795Z,3.55
2023-11-23T16:42:32.138Z,3.59
2023-11-23T16:45:46.041Z,3.60
2023-11-23T16:48:59.043Z,3.43
2023-11-23T16:52:11.801Z,3.37
2023-11-23T16:55:25.975Z,3.34
2023-11-23T16:58:40.005Z,3.38
2023-11-23T17:01:52.860Z,3.37
2023-11-23T17:05:10.307Z,3.50
2023-11-23T17:08:23.821Z,3.39
2023-11-23T17:11:36.612Z,3.32
2023-11-23T17:14:49.330Z,3.45
2023-11-23T17:18:01.787Z,3.26
2023-11-23T17:21:14.503Z,3.29
2023-11-23T17:24:28.662Z,3.46
2023-11-23T17:27:42.932Z,3.28
2023-11-23T17:30:56.192Z,3.19
2023-11-23T17:34:09.488Z,3.13
2023-11-23T17:37:21.920Z,3.01
2023-11-23T17:40:34.625Z,3.03
2023-11-23T17:43:52.211Z,3.08
2023-11-23T17:47:07.435Z,3.00
2023-11-23T17:50:20.164Z,2.85
2023-11-23T17:53:32.858Z,3.01
2023-11-23T17:56:45.338Z,3.03
2023-11-23T17:59:58.108Z,3.04
2023-11-23T18:03:12.339Z,3.08
2023-11-23T18:06:25.132Z,3.04
2023-11-23T18:09:37.780Z,3.08
2023-11-23T18:12:50.589Z,3.06
2023-11-23T18:16:04.361Z,3.03
2023-11-23T18:19:17.297Z,2.95
2023-11-23T18:22:30.126Z,3.07
2023-11-23T18:25:44.662Z,2.88
2023-11-23T18:28:57.123Z,2.95
2023-11-23T18:32:14.708Z,2.83
2023-11-23T18:35:28.174Z,2.78
2023-11-23T18:38:41.117Z,2.89
2023-11-23T18:41:53.569Z,2.79
2023-11-23T18:45:07.054Z,2.69
2023-11-23T18:48:19.566Z,2.62
2023-11-23T18:51:32.497Z,2.49
2023-11-23T18:54:45.878Z,2.57
2023-11-23T18:57:58.662Z,2.50
2023-11-23T19:01:11.145Z,2.46
2023-11-23T19:04:24.562Z,2.48
2023-11-23T19:07:37.068Z,2.43
2023-11-23T19:10:49.917Z,2.37
2023-11-23T19:14:02.397Z,2.36
2023-11-23T19:17:15.386Z,2.29
2023-11-23T19:20:27.885Z,2.38
2023-11-23T19:23:40.941Z,2.37
2023-11-23T19:26:53.929Z,2.23
2023-11-23T19:30:08.883Z,2.21
2023-11-23T19:33:22.105Z,2.18
2023-11-23T19:36:35.409Z,2.17
2023-11-23T19:39:48.717Z,2.30
2023-11-23T19:43:02.064Z,2.10
2023-11-23T19:46:15.008Z,2.06
2023-11-23T19:49:28.140Z,1.96
2023-11-23T19:52:43.699Z,2.05
2023-11-23T19:55:56.378Z,2.21
2023-11-23T19:59:08.775Z,2.08
2023-11-23T20:02:21.603Z,2.13
2023-11-23T20:05:34.372Z,2.12
2023-11-23T20:08:47.272Z,2.15
2023-11-23T20:12:00.085Z,2.17
2023-11-23T20:15:13.214Z,2.08
2023-11-23T20:18:26.202Z,2.11
2023-11-23T20:21:39.960Z,2.37
2023-11-23T20:24:52.878Z,2.24
2023-11-23T20:28:06.495Z,2.19
2023-11-23T20:31:19.242Z,2.15
2023-11-23T20:34:32.456Z,2.20
2023-11-23T20:37:46.106Z,2.19
2023-11-23T20:40:58.705Z,2.22
2023-11-23T20:44:11.478Z,2.29
2023-11-23T20:47:24.194Z,2.16
2023-11-23T20:50:36.891Z,2.17
2023-11-23T20:53:51.726Z,2.21
2023-11-23T20:57:05.328Z,2.29
2023-11-23T21:00:18.148Z,2.19
2023-11-23T21:03:31.193Z,2.19
2023-11-23T21:06:55.913Z,2.23
2023-11-23T21:10:14.655Z,2.15
2023-11-23T21:13:28.592Z,2.23
2023-11-23T21:16:41.736Z,2.24
2023-11-23T21:19:54.149Z,2.22
2023-11-23T21:23:06.832Z,2.23
2023-11-23T21:26:20.265Z,2.23
2023-11-23T21:29:32.960Z,2.23
2023-11-23T21:32:45.453Z,2.27
2023-11-23T21:35:59.084Z,2.28
2023-11-23T21:39:12.855Z,2.35
2023-11-23T21:42:25.741Z,2.23
2023-11-23T21:45:38.198Z,2.25
2023-11-23T21:48:52.919Z,2.09
2023-11-23T21:52:05.420Z,2.12
2023-11-23T21:55:18.149Z,2.17
2023-11-23T21:58:31.194Z,2.00
2023-11-23T22:01:44.046Z,2.11
2023-11-23T22:04:56.737Z,1.99
2023-11-23T22:08:09.153Z,1.93
2023-11-23T22:11:21.861Z,2.01
2023-11-23T22:14:34.250Z,1.99
2023-11-23T22:17:47.353Z,1.95
2023-11-23T22:20:59.910Z,1.89
2023-11-23T22:24:13.627Z,1.92
2023-11-23T22:27:27.020Z,1.80
2023-11-23T22:30:40.067Z,1.80
2023-11-23T22:33:52.829Z,1.67
2023-11-23T22:37:05.820Z,1.63
2023-11-23T22:40:19.046Z,1.63
2023-11-23T22:43:32.011Z,1.49
2023-11-23T22:46:44.882Z,1.50
2023-11-23T22:49:57.578Z,1.38
2023-11-23T22:53:10.654Z,1.47
2023-11-23T22:56:23.628Z,1.35
2023-11-23T22:59:36.244Z,1.25
2023-11-23T23:02:49.302Z,1.22
2023-11-23T23:06:03.140Z,1.27
2023-11-23T23:09:16.660Z,1.53
2023-11-23T23:12:29.963Z,1.57
2023-11-23T23:15:42.695Z,1.25
2023-11-23T23:18:55.291Z,1.11
2023-11-23T23:22:16.941Z,1.07
2023-11-23T23:25:36.571Z,1.08
2023-11-23T23:28:49.296Z,1.04
2023-11-23T23:32:01.653Z,1.02
2023-11-23T23:35:14.328Z,1.10
2023-11-23T23:38:26.705Z,1.16
2023-11-23T23:41:39.415Z,1.06
2023-11-23T23:44:54.361Z,1.15
2023-11-23T23:48:07.723Z,1.08
2023-11-23T23:51:20.150Z,1.03
2023-11-23T23:54:32.889Z,1.05
2023-11-23T23:57:45.725Z,0.97
